createdAt,value
2022-09-13T00:00:59.705Z,10.57
2022-09-13T00:03:26.911Z,10.18
2022-09-13T00:05:53.434Z,10.27
2022-09-13T00:08:20.099Z,9.82
2022-09-13T00:10:47.440Z,10.30
2022-09-13T00:13:16.108Z,10.00
2022-09-13T00:15:48.371Z,10.32
2022-09-13T00:18:16.782Z,10.13
2022-09-13T00:20:43.247Z,10.23
2022-09-13T00:23:10.468Z,10.10
2022-09-13T00:25:37.018Z,9.85
2022-09-13T00:28:04.398Z,9.75
2022-09-13T00:30:31.440Z,9.65
2022-09-13T00:32:58.173Z,9.50
2022-09-13T00:35:24.694Z,10.03
2022-09-13T00:37:51.255Z,10.20
2022-09-13T00:40:17.887Z,9.63
2022-09-13T00:42:44.408Z,10.02
2022-09-13T00:45:10.784Z,9.93
2022-09-13T00:47:42.733Z,9.43
2022-09-13T00:50:40.448Z,9.80
2022-09-13T00:53:12.527Z,9.60
2022-09-13T00:55:53.403Z,9.38
2022-09-13T00:58:24.375Z,9.38
2022-09-13T01:00:52.421Z,9.30
2022-09-13T01:03:21.752Z,9.68
2022-09-13T01:05:54.170Z,9.57
2022-09-13T01:08:20.636Z,9.45
2022-09-13T01:10:47.135Z,9.10
2022-09-13T01:13:18.580Z,9.90
2022-09-13T01:15:45.015Z,9.07
2022-09-13T01:18:11.808Z,10.00
2022-09-13T01:21:04.319Z,9.68
2022-09-13T01:23:44.250Z,9.50
2022-09-13T01:26:19.695Z,9.90
2022-09-13T01:28:58.354Z,9.65
2022-09-13T01:31:54.027Z,9.85
2022-09-13T01:34:29.911Z,8.90
2022-09-13T01:37:29.392Z,9.82
2022-09-13T01:40:04.023Z,9.60
2022-09-13T01:42:30.404Z,9.60
2022-09-13T01:45:05.819Z,9.43
2022-09-13T01:47:43.083Z,10.05
2022-09-13T01:50:23.142Z,9.15
2022-09-13T01:53:02.197Z,9.83
2022-09-13T01:55:32.541Z,9.15
2022-09-13T01:58:22.393Z,9.65
2022-09-13T02:00:59.969Z,9.30
2022-09-13T02:03:33.460Z,10.27
2022-09-13T02:06:06.165Z,10.43
2022-09-13T02:08:41.014Z,11.13
2022-09-13T02:11:13.401Z,10.13
2022-09-13T02:13:56.092Z,10.00
2022-09-13T02:16:43.008Z,10.25
2022-09-13T02:19:15.038Z,10.90
2022-09-13T02:21:44.464Z,11.40
2022-09-13T02:24:24.718Z,11.15
2022-09-13T02:26:54.540Z,11.10
2022-09-13T02:29:26.203Z,11.13
2022-09-13T02:32:15.849Z,10.90
2022-09-13T02:34:51.391Z,10.60
2022-09-13T02:37:18.954Z,10.43
2022-09-13T02:39:54.265Z,10.85
2022-09-13T02:42:26.499Z,10.50
2022-09-13T02:44:55.070Z,11.23
2022-09-13T02:47:46.496Z,10.65
2022-09-13T02:50:48.478Z,11.10
2022-09-13T02:53:35.074Z,10.82
2022-09-13T02:56:13.409Z,10.65
2022-09-13T02:58:48.677Z,10.47
2022-09-13T03:01:15.482Z,10.23
2022-09-13T03:03:42.107Z,10.43
2022-09-13T03:06:08.559Z,10.50
2022-09-13T03:08:36.428Z,9.95
2022-09-13T03:11:31.982Z,10.27
2022-09-13T03:14:19.463Z,10.40
2022-09-13T03:17:36.260Z,9.48
2022-09-13T03:20:18.442Z,10.65
2022-09-13T03:22:44.793Z,10.65
2022-09-13T03:25:50.513Z,10.30
2022-09-13T03:28:44.910Z,10.10
2022-09-13T03:31:38.870Z,10.10
2022-09-13T03:34:12.590Z,10.43
2022-09-13T03:36:41.960Z,10.70
2022-09-13T03:39:36.114Z,10.27
2022-09-13T03:42:12.639Z,10.90
2022-09-13T03:44:42.565Z,10.77
2022-09-13T03:47:09.089Z,10.30
2022-09-13T03:49:38.921Z,10.43
2022-09-13T03:52:06.049Z,10.33
2022-09-13T03:54:36.134Z,10.75
2022-09-13T03:57:06.651Z,9.43
2022-09-13T03:59:33.065Z,9.93
2022-09-13T04:01:59.520Z,9.60
2022-09-13T04:04:25.951Z,10.30
2022-09-13T04:06:52.406Z,10.00
2022-09-13T04:09:18.887Z,10.30
2022-09-13T04:11:45.344Z,9.90
2022-09-13T04:14:11.742Z,10.85
2022-09-13T04:16:38.191Z,10.80
2022-09-13T04:19:04.622Z,10.25
2022-09-13T04:21:31.031Z,10.20
2022-09-13T04:23:57.417Z,10.35
2022-09-13T04:26:23.870Z,10.30
2022-09-13T04:28:52.931Z,10.47
2022-09-13T04:31:19.508Z,11.30
2022-09-13T04:33:45.924Z,10.90
2022-09-13T04:36:12.400Z,11.60
2022-09-13T04:38:38.774Z,11.43
2022-09-13T04:41:05.364Z,11.20
2022-09-13T04:43:31.793Z,11.73
2022-09-13T04:46:01.485Z,10.73
2022-09-13T04:48:27.986Z,10.73
2022-09-13T04:51:00.442Z,11.10
2022-09-13T04:53:26.854Z,10.70
2022-09-13T04:55:53.321Z,12.32
2022-09-13T04:58:21.050Z,11.90
2022-09-13T05:00:47.489Z,11.60
2022-09-13T05:03:13.910Z,11.30
2022-09-13T05:05:40.305Z,11.17
2022-09-13T05:08:06.750Z,11.18
2022-09-13T05:10:33.149Z,10.18
2022-09-13T05:12:59.548Z,11.00
2022-09-13T05:15:25.973Z,10.48
2022-09-13T05:17:52.433Z,11.07
2022-09-13T05:20:19.004Z,10.30
2022-09-13T05:22:45.401Z,10.80
2022-09-13T05:25:11.860Z,11.40
2022-09-13T05:27:38.281Z,11.95
2022-09-13T05:30:05.331Z,12.13
2022-09-13T05:32:32.349Z,10.98
2022-09-13T05:34:58.739Z,10.32
2022-09-13T05:37:25.264Z,11.25
2022-09-13T05:40:10.814Z,11.60
2022-09-13T05:42:38.104Z,11.07
2022-09-13T05:45:05.070Z,10.48
2022-09-13T05:47:31.492Z,11.05
2022-09-13T05:50:27.271Z,11.23
2022-09-13T05:52:44.532Z,12.02
2022-09-13T05:55:10.966Z,10.80
2022-09-13T05:57:37.378Z,11.77
2022-09-13T06:00:04.323Z,12.07
2022-09-13T06:02:31.372Z,12.00
2022-09-13T06:04:57.900Z,12.02
2022-09-13T06:07:24.323Z,13.10
2022-09-13T06:09:50.755Z,13.80
2022-09-13T06:12:17.268Z,14.15
2022-09-13T06:14:43.651Z,13.23
2022-09-13T06:17:10.036Z,13.50
2022-09-13T06:19:36.447Z,13.23
2022-09-13T06:22:02.921Z,13.35
2022-09-13T06:24:29.313Z,12.27
2022-09-13T06:26:55.699Z,12.68
2022-09-13T06:29:22.083Z,13.05
2022-09-13T06:31:48.762Z,13.40
2022-09-13T06:34:15.360Z,12.98
2022-09-13T06:36:42.506Z,13.65
2022-09-13T06:39:09.193Z,12.50
2022-09-13T06:41:36.290Z,12.30
2022-09-13T06:44:02.995Z,12.50
2022-09-13T06:46:32.546Z,12.48
2022-09-13T06:49:00.686Z,12.90
2022-09-13T06:51:27.343Z,13.77
2022-09-13T06:53:54.052Z,13.30
2022-09-13T06:56:22.982Z,14.33
2022-09-13T06:58:52.135Z,15.30
2022-09-13T07:01:21.814Z,14.05
2022-09-13T07:03:53.575Z,14.43
2022-09-13T07:06:25.937Z,14.68
2022-09-13T07:08:53.082Z,14.87
2022-09-13T07:11:21.924Z,15.10
2022-09-13T07:13:53.515Z,14.50
2022-09-13T07:16:22.151Z,16.15
2022-09-13T07:18:57.462Z,15.35
2022-09-13T07:21:24.530Z,14.70
2022-09-13T07:23:52.563Z,14.90
2022-09-13T07:26:19.511Z,15.07
2022-09-13T07:28:48.781Z,15.25
2022-09-13T07:31:18.148Z,15.02
2022-09-13T07:33:45.292Z,15.10
2022-09-13T07:36:12.747Z,15.48
2022-09-13T07:38:43.656Z,15.82
2022-09-13T07:41:12.849Z,15.35
2022-09-13T07:43:39.330Z,15.05
2022-09-13T07:46:11.052Z,16.17
2022-09-13T07:48:39.482Z,15.52
2022-09-13T07:51:08.945Z,14.45
2022-09-13T07:53:36.926Z,16.00
2022-09-13T07:56:04.755Z,16.70
2022-09-13T07:58:33.156Z,15.50
2022-09-13T08:01:13.767Z,15.65
2022-09-13T08:03:40.602Z,15.32
2022-09-13T08:06:09.024Z,16.38
2022-09-13T08:08:36.957Z,16.00
2022-09-13T08:11:05.805Z,16.03
2022-09-13T08:13:32.522Z,16.55
2022-09-13T08:16:06.329Z,15.70
2022-09-13T08:18:33.587Z,15.40
2022-09-13T08:21:00.763Z,16.10
2022-09-13T08:23:27.789Z,15.87
2022-09-13T08:25:54.279Z,15.93
2022-09-13T08:28:26.829Z,16.23
2022-09-13T08:30:54.440Z,15.75
2022-09-13T08:33:21.077Z,14.27
2022-09-13T08:35:52.104Z,12.53
2022-09-13T08:38:19.385Z,11.02
2022-09-13T08:40:55.580Z,10.20
2022-09-13T08:43:50.911Z,11.07
2022-09-13T08:46:29.351Z,7.78
2022-09-13T08:49:00.634Z,7.77
2022-09-13T08:51:37.537Z,6.85
2022-09-13T08:54:04.763Z,6.80
2022-09-13T08:56:42.976Z,7.30
2022-09-13T08:59:12.423Z,8.20
2022-09-13T09:02:00.421Z,7.67
2022-09-13T09:04:26.786Z,8.30
2022-09-13T09:07:08.194Z,7.68
2022-09-13T09:09:41.478Z,8.70
2022-09-13T09:12:21.361Z,9.60
2022-09-13T09:15:02.634Z,8.63
2022-09-13T09:17:43.176Z,8.93
2022-09-13T09:20:19.195Z,11.63
2022-09-13T09:22:47.258Z,10.85
2022-09-13T09:25:13.766Z,10.20
2022-09-13T09:27:40.437Z,10.10
2022-09-13T09:30:12.274Z,10.30
2022-09-13T09:32:51.355Z,10.38
2022-09-13T09:35:37.690Z,9.63
2022-09-13T09:38:22.630Z,10.07
2022-09-13T09:40:49.482Z,10.17
2022-09-13T09:43:24.236Z,10.25
2022-09-13T09:45:54.865Z,9.57
2022-09-13T09:48:27.745Z,9.63
2022-09-13T09:50:57.622Z,9.00
2022-09-13T09:53:37.263Z,9.17
2022-09-13T09:56:17.055Z,8.05
2022-09-13T09:58:45.048Z,8.20
2022-09-13T10:01:37.577Z,7.53
2022-09-13T10:04:03.996Z,7.00
2022-09-13T10:06:31.737Z,7.07
2022-09-13T10:09:05.186Z,6.70
2022-09-13T10:11:40.501Z,7.05
2022-09-13T10:14:07.055Z,7.60
2022-09-13T10:16:33.894Z,7.28
2022-09-13T10:19:24.546Z,7.10
2022-09-13T10:22:13.952Z,7.38
2022-09-13T10:24:40.357Z,6.32
2022-09-13T10:27:21.473Z,6.30
2022-09-13T10:29:51.594Z,6.40
2022-09-13T10:32:18.120Z,5.80
2022-09-13T10:34:46.458Z,5.40
2022-09-13T10:37:17.553Z,5.22
2022-09-13T10:40:02.490Z,5.47
2022-09-13T10:42:29.665Z,6.80
2022-09-13T10:44:58.141Z,5.97
2022-09-13T10:47:29.628Z,5.93
2022-09-13T10:49:57.823Z,5.35
2022-09-13T10:52:30.655Z,4.88
2022-09-13T10:55:15.920Z,5.43
2022-09-13T10:57:42.750Z,5.70
2022-09-13T11:00:12.482Z,5.85
2022-09-13T11:03:16.498Z,6.32
2022-09-13T11:06:09.924Z,6.50
2022-09-13T11:09:07.067Z,6.10
2022-09-13T11:12:09.034Z,6.13
2022-09-13T11:15:15.793Z,5.60
2022-09-13T11:18:06.877Z,5.35
2022-09-13T11:20:50.360Z,5.60
2022-09-13T11:23:38.552Z,6.25
2022-09-13T11:26:38.273Z,5.70
2022-09-13T11:29:21.667Z,5.63
2022-09-13T11:31:59.491Z,4.88
2022-09-13T11:34:25.879Z,4.70
2022-09-13T11:37:32.954Z,5.03
2022-09-13T11:40:25.784Z,5.90
2022-09-13T11:43:24.772Z,6.10
2022-09-13T11:45:57.334Z,5.82
2022-09-13T11:48:56.011Z,6.18
2022-09-13T11:51:31.412Z,6.60
2022-09-13T11:54:18.754Z,6.27
2022-09-13T11:56:50.440Z,6.07
2022-09-13T11:59:35.490Z,5.82
2022-09-13T12:02:14.008Z,6.20
2022-09-13T12:05:11.297Z,6.05
2022-09-13T12:07:47.551Z,6.37
2022-09-13T12:10:21.610Z,6.18
2022-09-13T12:12:50.530Z,6.90
2022-09-13T12:15:23.143Z,6.70
2022-09-13T12:17:58.283Z,6.70
2022-09-13T12:20:31.077Z,6.93
2022-09-13T12:23:01.563Z,6.60
2022-09-13T12:26:17.540Z,7.00
2022-09-13T12:28:57.965Z,7.10
2022-09-13T12:31:27.649Z,7.90
2022-09-13T12:33:54.721Z,7.53
2022-09-13T12:36:58.947Z,7.00
2022-09-13T12:39:34.517Z,6.60
2022-09-13T12:42:19.082Z,7.10
2022-09-13T12:45:16.568Z,7.15
2022-09-13T12:47:42.966Z,6.80
2022-09-13T12:50:44.868Z,7.18
2022-09-13T12:53:36.108Z,6.82
2022-09-13T12:56:14.770Z,7.00
2022-09-13T12:58:41.134Z,7.05
2022-09-13T13:01:16.002Z,7.13
2022-09-13T13:03:57.325Z,7.13
2022-09-13T13:07:00.717Z,7.90
2022-09-13T13:09:36.211Z,7.95
2022-09-13T13:12:03.292Z,7.28
2022-09-13T13:14:44.261Z,7.67
2022-09-13T13:17:45.878Z,9.38
2022-09-13T13:20:49.964Z,7.75
2022-09-13T13:23:35.518Z,6.13
2022-09-13T13:26:20.102Z,5.63
2022-09-13T13:28:46.483Z,6.00
2022-09-13T13:31:22.160Z,6.18
2022-09-13T13:33:52.880Z,6.20
2022-09-13T13:36:22.379Z,6.88
2022-09-13T13:38:50.416Z,7.18
2022-09-13T13:41:34.909Z,6.43
2022-09-13T13:44:02.379Z,6.03
2022-09-13T13:46:32.161Z,5.60
2022-09-13T13:49:29.640Z,6.50
2022-09-13T13:52:25.285Z,5.47
2022-09-13T13:54:51.718Z,6.30
2022-09-13T13:57:24.018Z,5.47
2022-09-13T13:59:54.425Z,4.63
2022-09-13T14:02:31.169Z,4.50
2022-09-13T14:05:34.362Z,4.20
2022-09-13T14:08:43.053Z,4.63
2022-09-13T14:11:31.175Z,4.40
2022-09-13T14:14:27.419Z,4.35
2022-09-13T14:17:48.589Z,3.53
2022-09-13T14:20:18.696Z,3.83
2022-09-13T14:22:45.116Z,3.60
2022-09-13T14:25:20.672Z,3.80
2022-09-13T14:27:49.488Z,4.10
2022-09-13T14:30:23.521Z,3.75
2022-09-13T14:32:58.636Z,3.85
2022-09-13T14:35:29.965Z,3.20
2022-09-13T14:38:11.582Z,3.40
2022-09-13T14:40:38.152Z,3.40
2022-09-13T14:43:25.463Z,3.70
2022-09-13T14:45:59.344Z,3.60
2022-09-13T14:48:32.084Z,3.60
2022-09-13T14:51:05.341Z,3.40
2022-09-13T14:53:34.642Z,3.50
2022-09-13T14:56:13.276Z,3.30
2022-09-13T14:58:45.298Z,3.45
2022-09-13T15:01:19.856Z,2.90
2022-09-13T15:03:48.239Z,2.65
2022-09-13T15:06:25.508Z,2.45
2022-09-13T15:08:53.228Z,2.70
2022-09-13T15:11:35.969Z,2.60
2022-09-13T15:14:14.727Z,2.43
2022-09-13T15:16:53.684Z,2.33
2022-09-13T15:19:23.190Z,2.38
2022-09-13T15:21:50.457Z,2.47
2022-09-13T15:24:25.503Z,2.60
2022-09-13T15:27:02.508Z,2.57
2022-09-13T15:29:29.053Z,2.70
2022-09-13T15:31:59.218Z,2.75
2022-09-13T15:34:25.671Z,3.00
2022-09-13T15:37:01.218Z,2.83
2022-09-13T15:39:28.067Z,2.70
2022-09-13T15:42:00.942Z,2.75
2022-09-13T15:44:29.072Z,2.90
2022-09-13T15:47:03.171Z,2.90
2022-09-13T15:49:32.029Z,3.08
2022-09-13T15:52:00.761Z,2.50
2022-09-13T15:54:39.895Z,2.70
2022-09-13T15:57:19.220Z,2.60
2022-09-13T15:59:45.805Z,2.60
2022-09-13T16:02:19.859Z,2.60
2022-09-13T16:04:46.576Z,2.73
2022-09-13T16:07:13.719Z,2.60
2022-09-13T16:09:40.662Z,2.70
2022-09-13T16:12:07.250Z,2.60
2022-09-13T16:14:33.716Z,2.13
2022-09-13T16:17:19.212Z,2.70
2022-09-13T16:19:45.626Z,2.00
2022-09-13T16:22:12.877Z,2.30
2022-09-13T16:24:39.628Z,2.25
2022-09-13T16:27:06.414Z,2.20
2022-09-13T16:29:32.901Z,2.20
2022-09-13T16:31:59.874Z,2.40
2022-09-13T16:34:26.624Z,2.40
2022-09-13T16:36:53.223Z,2.20
2022-09-13T16:39:19.960Z,2.08
2022-09-13T16:41:46.400Z,1.93
2022-09-13T16:44:12.869Z,1.80
2022-09-13T16:46:39.401Z,2.10
2022-09-13T16:49:06.388Z,1.60
2022-09-13T16:51:32.864Z,1.80
2022-09-13T16:53:59.893Z,1.60
2022-09-13T16:56:27.887Z,1.50
2022-09-13T16:58:54.498Z,1.50
2022-09-13T17:01:27.187Z,1.80
2022-09-13T17:03:55.051Z,1.70
2022-09-13T17:06:22.925Z,1.73
2022-09-13T17:08:58.982Z,1.50
2022-09-13T17:11:27.377Z,1.50
2022-09-13T17:13:54.407Z,1.70
2022-09-13T17:16:33.888Z,1.73
2022-09-13T17:19:03.365Z,1.70
2022-09-13T17:21:30.517Z,1.60
2022-09-13T17:23:57.087Z,1.98
2022-09-13T17:26:23.601Z,1.60
2022-09-13T17:28:50.169Z,1.92
2022-09-13T17:31:16.695Z,1.80
2022-09-13T17:33:43.211Z,2.17
2022-09-13T17:36:12.569Z,1.90
2022-09-13T17:38:39.945Z,1.80
2022-09-13T17:41:14.656Z,1.80
2022-09-13T17:43:41.955Z,1.70
2022-09-13T17:46:11.822Z,2.00
2022-09-13T17:48:38.862Z,1.95
2022-09-13T17:51:14.449Z,1.75
2022-09-13T17:53:43.783Z,2.00
2022-09-13T17:56:10.183Z,1.90
2022-09-13T17:58:36.896Z,1.90
2022-09-13T18:01:08.663Z,2.13
2022-09-13T18:03:36.227Z,2.15
2022-09-13T18:06:04.285Z,2.00
2022-09-13T18:08:32.507Z,2.07
2022-09-13T18:11:14.347Z,2.00
2022-09-13T18:13:43.139Z,2.30
2022-09-13T18:16:16.024Z,2.20
2022-09-13T18:18:45.495Z,2.22
2022-09-13T18:21:13.003Z,2.10
2022-09-13T18:23:39.453Z,1.95
2022-09-13T18:26:11.101Z,2.00
2022-09-13T18:28:38.108Z,2.00
2022-09-13T18:31:07.071Z,2.00
2022-09-13T18:33:33.869Z,1.90
2022-09-13T18:36:07.698Z,2.22
2022-09-13T18:38:36.367Z,1.90
2022-09-13T18:41:12.113Z,2.00
2022-09-13T18:43:40.179Z,2.10
2022-09-13T18:46:11.051Z,2.00
2022-09-13T18:48:46.711Z,2.20
2022-09-13T18:51:19.449Z,2.10
2022-09-13T18:53:47.654Z,2.20
2022-09-13T18:56:17.067Z,2.50
2022-09-13T18:58:44.500Z,2.17
2022-09-13T19:01:19.631Z,2.40
2022-09-13T19:03:54.460Z,2.10
2022-09-13T19:06:33.081Z,2.20
2022-09-13T19:09:00.837Z,2.13
2022-09-13T19:11:48.362Z,2.30
2022-09-13T19:14:19.181Z,2.60
2022-09-13T19:16:46.397Z,2.40
2022-09-13T19:19:13.281Z,2.80
2022-09-13T19:21:40.308Z,2.55
2022-09-13T19:24:10.917Z,2.73
2022-09-13T19:26:40.374Z,2.53
2022-09-13T19:29:16.233Z,2.50
2022-09-13T19:31:45.602Z,2.75
2022-09-13T19:34:12.066Z,3.22
2022-09-13T19:36:39.707Z,3.37
2022-09-13T19:39:07.341Z,2.85
2022-09-13T19:41:34.896Z,4.57
2022-09-13T19:44:02.334Z,3.28
2022-09-13T19:46:32.236Z,5.70
2022-09-13T19:49:00.613Z,4.83
2022-09-13T19:51:32.646Z,3.70
2022-09-13T19:54:00.212Z,3.05
2022-09-13T19:56:29.359Z,3.13
2022-09-13T19:58:56.323Z,4.07
2022-09-13T20:01:28.993Z,3.60
2022-09-13T20:04:02.060Z,3.75
2022-09-13T20:06:32.892Z,2.92
2022-09-13T20:09:00.559Z,3.67
2022-09-13T20:11:27.268Z,3.10
2022-09-13T20:13:54.157Z,3.13
2022-09-13T20:16:23.631Z,3.83
2022-09-13T20:18:50.660Z,2.97
2022-09-13T20:21:19.469Z,3.53
2022-09-13T20:23:46.795Z,4.97
2022-09-13T20:26:22.469Z,3.20
2022-09-13T20:28:49.519Z,3.13
2022-09-13T20:31:16.616Z,3.90
2022-09-13T20:33:43.273Z,3.72
2022-09-13T20:36:12.656Z,3.47
2022-09-13T20:38:40.000Z,3.43
2022-09-13T20:41:09.144Z,3.15
2022-09-13T20:43:35.669Z,2.72
2022-09-13T20:46:02.151Z,2.78
2022-09-13T20:48:28.675Z,2.70
2022-09-13T20:50:58.670Z,2.90
2022-09-13T20:53:25.967Z,2.58
2022-09-13T20:55:52.688Z,2.60
2022-09-13T20:58:22.838Z,2.58
2022-09-13T21:00:49.469Z,2.47
2022-09-13T21:03:16.364Z,2.80
2022-09-13T21:05:43.024Z,2.70
2022-09-13T21:08:16.572Z,2.25
2022-09-13T21:10:42.960Z,2.30
2022-09-13T21:13:09.375Z,2.47
2022-09-13T21:15:35.770Z,2.87
2022-09-13T21:18:02.152Z,2.75
2022-09-13T21:20:28.658Z,2.85
2022-09-13T21:22:55.054Z,2.58
2022-09-13T21:25:21.492Z,2.40
2022-09-13T21:27:48.109Z,2.40
2022-09-13T21:30:14.670Z,2.70
2022-09-13T21:32:41.063Z,2.40
2022-09-13T21:35:07.814Z,2.47
2022-09-13T21:37:34.236Z,2.60
2022-09-13T21:40:00.782Z,2.70
2022-09-13T21:42:27.195Z,2.33
2022-09-13T21:44:53.603Z,2.35
2022-09-13T21:47:20.032Z,2.50
2022-09-13T21:49:46.440Z,2.20
2022-09-13T21:52:12.848Z,2.43
2022-09-13T21:54:39.249Z,2.50
2022-09-13T21:57:05.691Z,2.70
2022-09-13T21:59:32.138Z,2.40
2022-09-13T22:01:58.552Z,2.50
2022-09-13T22:04:25.627Z,2.77
2022-09-13T22:06:52.246Z,2.55
2022-09-13T22:09:20.181Z,2.22
2022-09-13T22:11:48.438Z,2.90
2022-09-13T22:14:18.291Z,2.58
2022-09-13T22:16:45.779Z,2.70
2022-09-13T22:19:15.358Z,2.63
2022-09-13T22:21:45.147Z,2.40
2022-09-13T22:24:20.206Z,2.60
2022-09-13T22:26:48.478Z,2.80
2022-09-13T22:29:15.293Z,2.60
2022-09-13T22:31:43.315Z,2.80
2022-09-13T22:34:17.074Z,2.78
2022-09-13T22:36:44.064Z,2.70
2022-09-13T22:39:12.197Z,2.45
2022-09-13T22:41:38.638Z,2.90
2022-09-13T22:44:05.298Z,2.83
2022-09-13T22:46:37.663Z,2.83
2022-09-13T22:49:05.471Z,2.90
2022-09-13T22:51:32.593Z,3.00
2022-09-13T22:54:03.569Z,2.90
2022-09-13T22:56:34.944Z,2.80
2022-09-13T22:59:13.283Z,3.05
2022-09-13T23:01:40.627Z,2.90
2022-09-13T23:04:07.593Z,3.35
2022-09-13T23:06:34.947Z,3.30
2022-09-13T23:09:04.186Z,3.00
2022-09-13T23:11:33.652Z,3.03
2022-09-13T23:14:03.294Z,3.10
2022-09-13T23:16:36.537Z,3.20
2022-09-13T23:19:03.033Z,3.20
2022-09-13T23:21:32.652Z,3.60
2022-09-13T23:24:00.496Z,3.15
2022-09-13T23:26:27.911Z,3.30
2022-09-13T23:28:56.662Z,3.28
2022-09-13T23:31:29.172Z,3.30
2022-09-13T23:33:58.331Z,3.03
2022-09-13T23:36:27.959Z,3.25
2022-09-13T23:38:56.833Z,3.20
2022-09-13T23:41:23.955Z,2.95
2022-09-13T23:43:50.339Z,3.20
2022-09-13T23:46:16.886Z,3.38
2022-09-13T23:48:44.045Z,3.22
2022-09-13T23:51:22.410Z,3.00
2022-09-13T23:53:50.185Z,3.20
2022-09-13T23:56:16.626Z,2.87
2022-09-13T23:58:43.852Z,3.30
